sensor_id;sensor_type;location;lat;lon;timestamp;temperature;humidity
51613;DHT22;37694;51.748;14.326;2023-02-17T00:00:34;22.90;45.60
51613;DHT22;37694;51.748;14.326;2023-02-17T00:03:00;22.90;45.70
51613;DHT22;37694;51.748;14.326;2023-02-17T00:05:27;22.90;45.70
51613;DHT22;37694;51.748;14.326;2023-02-17T00:07:53;22.90;45.80
51613;DHT22;37694;51.748;14.326;2023-02-17T00:10:19;22.90;45.80
51613;DHT22;37694;51.748;14.326;2023-02-17T00:12:45;22.90;45.70
51613;DHT22;37694;51.748;14.326;2023-02-17T00:15:10;22.90;45.70
51613;DHT22;37694;51.748;14.326;2023-02-17T00:17:36;22.90;45.80
51613;DHT22;37694;51.748;14.326;2023-02-17T00:20:02;22.80;45.80
51613;DHT22;37694;51.748;14.326;2023-02-17T00:22:28;22.90;45.90
51613;DHT22;37694;51.748;14.326;2023-02-17T00:24:54;22.80;45.80
51613;DHT22;37694;51.748;14.326;2023-02-17T00:27:19;22.80;45.80
51613;DHT22;37694;51.748;14.326;2023-02-17T00:29:45;22.80;45.80
51613;DHT22;37694;51.748;14.326;2023-02-17T00:32:11;22.80;45.80
51613;DHT22;37694;51.748;14.326;2023-02-17T00:34:37;22.80;45.70
51613;DHT22;37694;51.748;14.326;2023-02-17T00:37:03;22.80;45.80
51613;DHT22;37694;51.748;14.326;2023-02-17T00:39:28;22.80;45.70
51613;DHT22;37694;51.748;14.326;2023-02-17T00:41:54;22.80;45.60
51613;DHT22;37694;51.748;14.326;2023-02-17T00:44:22;22.80;45.70
51613;DHT22;37694;51.748;14.326;2023-02-17T00:46:48;22.70;45.50
51613;DHT22;37694;51.748;14.326;2023-02-17T00:49:19;22.70;45.50
51613;DHT22;37694;51.748;14.326;2023-02-17T00:51:46;22.70;45.40
51613;DHT22;37694;51.748;14.326;2023-02-17T00:54:13;22.70;45.50
51613;DHT22;37694;51.748;14.326;2023-02-17T00:56:39;22.70;45.40
51613;DHT22;37694;51.748;14.326;2023-02-17T00:59:05;22.70;45.50
51613;DHT22;37694;51.748;14.326;2023-02-17T01:01:31;22.70;45.50
51613;DHT22;37694;51.748;14.326;2023-02-17T01:03:57;22.70;45.60
51613;DHT22;37694;51.748;14.326;2023-02-17T01:06:27;22.70;45.50
51613;DHT22;37694;51.748;14.326;2023-02-17T01:08:53;22.70;45.70
51613;DHT22;37694;51.748;14.326;2023-02-17T01:11:21;22.60;45.80
51613;DHT22;37694;51.748;14.326;2023-02-17T01:13:47;22.60;45.70
51613;DHT22;37694;51.748;14.326;2023-02-17T01:16:22;22.60;45.50
51613;DHT22;37694;51.748;14.326;2023-02-17T01:18:48;22.60;45.60
51613;DHT22;37694;51.748;14.326;2023-02-17T01:21:18;22.60;45.50
51613;DHT22;37694;51.748;14.326;2023-02-17T01:23:45;22.60;45.30
51613;DHT22;37694;51.748;14.326;2023-02-17T01:26:15;22.60;45.30
51613;DHT22;37694;51.748;14.326;2023-02-17T01:28:41;22.60;45.40
51613;DHT22;37694;51.748;14.326;2023-02-17T01:31:09;22.60;45.30
51613;DHT22;37694;51.748;14.326;2023-02-17T01:33:35;22.50;45.30
51613;DHT22;37694;51.748;14.326;2023-02-17T01:36:02;22.50;45.30
51613;DHT22;37694;51.748;14.326;2023-02-17T01:38:28;22.60;45.30
51613;DHT22;37694;51.748;14.326;2023-02-17T01:40:54;22.60;45.30
51613;DHT22;37694;51.748;14.326;2023-02-17T01:43:20;22.50;45.40
51613;DHT22;37694;51.748;14.326;2023-02-17T01:48:18;22.50;45.30
51613;DHT22;37694;51.748;14.326;2023-02-17T01:50:52;22.50;45.20
51613;DHT22;37694;51.748;14.326;2023-02-17T01:53:28;22.50;45.30
51613;DHT22;37694;51.748;14.326;2023-02-17T01:55:57;22.50;45.30
51613;DHT22;37694;51.748;14.326;2023-02-17T01:58:24;22.50;45.20
51613;DHT22;37694;51.748;14.326;2023-02-17T02:00:52;22.50;45.30
51613;DHT22;37694;51.748;14.326;2023-02-17T02:03:20;22.50;45.20
51613;DHT22;37694;51.748;14.326;2023-02-17T02:05:46;22.40;45.20
51613;DHT22;37694;51.748;14.326;2023-02-17T02:08:12;22.50;45.10
51613;DHT22;37694;51.748;14.326;2023-02-17T02:10:38;22.40;45.20
51613;DHT22;37694;51.748;14.326;2023-02-17T02:13:05;22.40;45.20
51613;DHT22;37694;51.748;14.326;2023-02-17T02:15:49;22.40;45.20
51613;DHT22;37694;51.748;14.326;2023-02-17T02:33:02;22.40;44.90
51613;DHT22;37694;51.748;14.326;2023-02-17T02:40:56;22.30;45.00
51613;DHT22;37694;51.748;14.326;2023-02-17T02:43:23;22.30;44.90
51613;DHT22;37694;51.748;14.326;2023-02-17T02:45:49;22.30;45.00
51613;DHT22;37694;51.748;14.326;2023-02-17T02:48:15;22.30;44.90
51613;DHT22;37694;51.748;14.326;2023-02-17T02:51:20;22.30;44.80
51613;DHT22;37694;51.748;14.326;2023-02-17T02:56:59;22.30;44.80
51613;DHT22;37694;51.748;14.326;2023-02-17T03:02:07;22.30;44.90
51613;DHT22;37694;51.748;14.326;2023-02-17T03:04:45;22.30;44.80
51613;DHT22;37694;51.748;14.326;2023-02-17T03:07:29;22.30;44.80
51613;DHT22;37694;51.748;14.326;2023-02-17T03:09:58;22.30;44.70
51613;DHT22;37694;51.748;14.326;2023-02-17T03:12:24;22.30;44.60
51613;DHT22;37694;51.748;14.326;2023-02-17T03:14:54;22.30;44.60
51613;DHT22;37694;51.748;14.326;2023-02-17T03:17:22;22.20;44.60
51613;DHT22;37694;51.748;14.326;2023-02-17T03:19:48;22.20;44.50
51613;DHT22;37694;51.748;14.326;2023-02-17T03:22:21;22.20;44.60
51613;DHT22;37694;51.748;14.326;2023-02-17T03:24:48;22.20;44.80
51613;DHT22;37694;51.748;14.326;2023-02-17T03:27:13;22.20;44.80
51613;DHT22;37694;51.748;14.326;2023-02-17T03:29:39;22.20;44.70
51613;DHT22;37694;51.748;14.326;2023-02-17T03:32:05;22.20;44.80
51613;DHT22;37694;51.748;14.326;2023-02-17T03:34:31;22.10;44.70
51613;DHT22;37694;51.748;14.326;2023-02-17T03:36:57;22.20;44.70
51613;DHT22;37694;51.748;14.326;2023-02-17T03:39:23;22.10;44.80
51613;DHT22;37694;51.748;14.326;2023-02-17T03:41:49;22.10;44.60
51613;DHT22;37694;51.748;14.326;2023-02-17T03:44:16;22.20;44.60
51613;DHT22;37694;51.748;14.326;2023-02-17T03:46:43;22.10;44.60
51613;DHT22;37694;51.748;14.326;2023-02-17T03:49:08;22.10;44.60
51613;DHT22;37694;51.748;14.326;2023-02-17T03:51:34;22.10;44.60
51613;DHT22;37694;51.748;14.326;2023-02-17T03:54:00;22.10;44.60
51613;DHT22;37694;51.748;14.326;2023-02-17T03:56:25;22.10;44.50
51613;DHT22;37694;51.748;14.326;2023-02-17T03:58:51;22.10;44.80
51613;DHT22;37694;51.748;14.326;2023-02-17T04:01:17;22.10;44.50
51613;DHT22;37694;51.748;14.326;2023-02-17T04:03:42;22.10;44.40
51613;DHT22;37694;51.748;14.326;2023-02-17T04:06:09;22.10;44.60
51613;DHT22;37694;51.748;14.326;2023-02-17T04:08:35;22.10;44.40
51613;DHT22;37694;51.748;14.326;2023-02-17T04:11:03;22.10;44.40
51613;DHT22;37694;51.748;14.326;2023-02-17T04:13:29;22.10;44.50
51613;DHT22;37694;51.748;14.326;2023-02-17T04:15:54;22.10;44.30
51613;DHT22;37694;51.748;14.326;2023-02-17T04:18:21;22.00;44.80
51613;DHT22;37694;51.748;14.326;2023-02-17T04:20:48;22.10;44.70
51613;DHT22;37694;51.748;14.326;2023-02-17T04:23:14;22.00;44.40
51613;DHT22;37694;51.748;14.326;2023-02-17T04:25:41;22.10;44.70
51613;DHT22;37694;51.748;14.326;2023-02-17T04:28:07;22.10;44.50
51613;DHT22;37694;51.748;14.326;2023-02-17T04:30:33;22.10;44.40
51613;DHT22;37694;51.748;14.326;2023-02-17T04:32:59;22.10;44.40
51613;DHT22;37694;51.748;14.326;2023-02-17T04:35:25;22.10;44.30
51613;DHT22;37694;51.748;14.326;2023-02-17T04:37:51;22.10;44.40
51613;DHT22;37694;51.748;14.326;2023-02-17T04:40:17;22.10;44.40
51613;DHT22;37694;51.748;14.326;2023-02-17T04:42:43;22.10;44.30
51613;DHT22;37694;51.748;14.326;2023-02-17T04:45:09;22.20;44.50
51613;DHT22;37694;51.748;14.326;2023-02-17T04:47:35;22.20;44.40
51613;DHT22;37694;51.748;14.326;2023-02-17T04:50:01;22.30;44.30
51613;DHT22;37694;51.748;14.326;2023-02-17T04:52:26;22.30;44.20
51613;DHT22;37694;51.748;14.326;2023-02-17T04:54:52;22.40;44.10
51613;DHT22;37694;51.748;14.326;2023-02-17T04:57:18;22.50;44.10
51613;DHT22;37694;51.748;14.326;2023-02-17T04:59:43;22.50;44.00
51613;DHT22;37694;51.748;14.326;2023-02-17T05:02:09;22.60;43.90
51613;DHT22;37694;51.748;14.326;2023-02-17T05:04:35;22.60;43.80
51613;DHT22;37694;51.748;14.326;2023-02-17T05:07:01;22.70;43.70
51613;DHT22;37694;51.748;14.326;2023-02-17T05:09:27;22.70;43.70
51613;DHT22;37694;51.748;14.326;2023-02-17T05:11:52;22.80;43.70
51613;DHT22;37694;51.748;14.326;2023-02-17T05:14:18;22.80;43.60
51613;DHT22;37694;51.748;14.326;2023-02-17T05:16:44;22.90;43.50
51613;DHT22;37694;51.748;14.326;2023-02-17T05:19:10;23.00;43.50
51613;DHT22;37694;51.748;14.326;2023-02-17T05:21:36;23.00;43.30
51613;DHT22;37694;51.748;14.326;2023-02-17T05:24:01;23.10;43.20
51613;DHT22;37694;51.748;14.326;2023-02-17T05:26:27;23.10;43.10
51613;DHT22;37694;51.748;14.326;2023-02-17T05:28:53;23.20;43.10
51613;DHT22;37694;51.748;14.326;2023-02-17T05:31:18;23.30;43.00
51613;DHT22;37694;51.748;14.326;2023-02-17T05:33:44;23.40;42.90
51613;DHT22;37694;51.748;14.326;2023-02-17T05:36:10;23.40;42.80
51613;DHT22;37694;51.748;14.326;2023-02-17T05:38:37;23.40;42.70
51613;DHT22;37694;51.748;14.326;2023-02-17T05:41:03;23.50;42.70
51613;DHT22;37694;51.748;14.326;2023-02-17T05:43:29;23.50;42.60
51613;DHT22;37694;51.748;14.326;2023-02-17T05:45:54;23.60;42.70
51613;DHT22;37694;51.748;14.326;2023-02-17T05:48:20;23.60;42.70
51613;DHT22;37694;51.748;14.326;2023-02-17T05:50:46;23.70;42.60
51613;DHT22;37694;51.748;14.326;2023-02-17T05:53:12;23.70;42.50
51613;DHT22;37694;51.748;14.326;2023-02-17T05:55:38;23.70;42.40
51613;DHT22;37694;51.748;14.326;2023-02-17T05:58:03;23.80;42.40
51613;DHT22;37694;51.748;14.326;2023-02-17T06:00:29;23.80;42.30
51613;DHT22;37694;51.748;14.326;2023-02-17T06:02:55;23.80;42.20
51613;DHT22;37694;51.748;14.326;2023-02-17T06:05:21;23.80;42.20
51613;DHT22;37694;51.748;14.326;2023-02-17T06:07:46;23.80;42.30
51613;DHT22;37694;51.748;14.326;2023-02-17T06:10:12;23.80;42.30
51613;DHT22;37694;51.748;14.326;2023-02-17T06:12:38;23.80;42.20
51613;DHT22;37694;51.748;14.326;2023-02-17T06:15:05;23.80;42.20
51613;DHT22;37694;51.748;14.326;2023-02-17T06:17:30;23.80;42.20
51613;DHT22;37694;51.748;14.326;2023-02-17T06:19:56;23.80;42.30
51613;DHT22;37694;51.748;14.326;2023-02-17T06:22:22;23.70;42.30
51613;DHT22;37694;51.748;14.326;2023-02-17T06:24:47;23.70;42.30
51613;DHT22;37694;51.748;14.326;2023-02-17T06:27:13;23.70;42.80
51613;DHT22;37694;51.748;14.326;2023-02-17T06:29:39;23.70;42.70
51613;DHT22;37694;51.748;14.326;2023-02-17T06:32:04;23.70;42.80
51613;DHT22;37694;51.748;14.326;2023-02-17T06:34:30;23.70;43.30
51613;DHT22;37694;51.748;14.326;2023-02-17T06:36:56;23.70;43.30
51613;DHT22;37694;51.748;14.326;2023-02-17T06:39:21;23.70;43.20
51613;DHT22;37694;51.748;14.326;2023-02-17T06:41:47;23.70;43.40
51613;DHT22;37694;51.748;14.326;2023-02-17T06:44:13;23.70;43.20
51613;DHT22;37694;51.748;14.326;2023-02-17T06:46:38;23.70;43.70
51613;DHT22;37694;51.748;14.326;2023-02-17T06:49:04;23.70;43.50
51613;DHT22;37694;51.748;14.326;2023-02-17T06:51:30;23.70;43.50
51613;DHT22;37694;51.748;14.326;2023-02-17T06:53:56;23.70;43.30
51613;DHT22;37694;51.748;14.326;2023-02-17T06:56:21;23.70;43.30
51613;DHT22;37694;51.748;14.326;2023-02-17T06:58:47;23.60;43.20
51613;DHT22;37694;51.748;14.326;2023-02-17T07:01:21;23.60;43.30
51613;DHT22;37694;51.748;14.326;2023-02-17T07:03:48;23.60;43.60
51613;DHT22;37694;51.748;14.326;2023-02-17T07:06:13;23.60;43.80
51613;DHT22;37694;51.748;14.326;2023-02-17T07:08:39;23.50;44.00
51613;DHT22;37694;51.748;14.326;2023-02-17T07:11:06;23.60;44.30
51613;DHT22;37694;51.748;14.326;2023-02-17T07:13:33;23.60;44.10
51613;DHT22;37694;51.748;14.326;2023-02-17T07:15:58;23.50;44.10
51613;DHT22;37694;51.748;14.326;2023-02-17T07:18:24;23.50;43.60
51613;DHT22;37694;51.748;14.326;2023-02-17T07:20:50;23.50;43.70
51613;DHT22;37694;51.748;14.326;2023-02-17T07:23:16;23.40;43.50
51613;DHT22;37694;51.748;14.326;2023-02-17T07:25:42;23.40;43.50
51613;DHT22;37694;51.748;14.326;2023-02-17T07:28:07;23.40;43.40
51613;DHT22;37694;51.748;14.326;2023-02-17T07:30:38;23.40;43.30
51613;DHT22;37694;51.748;14.326;2023-02-17T07:33:04;23.40;43.20
51613;DHT22;37694;51.748;14.326;2023-02-17T07:35:30;23.40;43.20
51613;DHT22;37694;51.748;14.326;2023-02-17T07:37:57;23.40;43.20
51613;DHT22;37694;51.748;14.326;2023-02-17T07:40:23;23.40;43.30
51613;DHT22;37694;51.748;14.326;2023-02-17T07:42:49;23.30;43.20
51613;DHT22;37694;51.748;14.326;2023-02-17T07:45:14;23.30;44.20
51613;DHT22;37694;51.748;14.326;2023-02-17T07:47:40;23.30;43.20
51613;DHT22;37694;51.748;14.326;2023-02-17T07:50:07;23.30;43.20
51613;DHT22;37694;51.748;14.326;2023-02-17T07:52:33;23.30;43.10
51613;DHT22;37694;51.748;14.326;2023-02-17T07:54:58;23.30;43.10
51613;DHT22;37694;51.748;14.326;2023-02-17T07:57:24;23.30;43.10
51613;DHT22;37694;51.748;14.326;2023-02-17T07:59:50;23.30;43.10
51613;DHT22;37694;51.748;14.326;2023-02-17T08:02:16;23.30;43.10
51613;DHT22;37694;51.748;14.326;2023-02-17T08:04:42;23.20;43.20
51613;DHT22;37694;51.748;14.326;2023-02-17T08:07:07;23.20;43.40
51613;DHT22;37694;51.748;14.326;2023-02-17T08:09:33;23.20;43.40
51613;DHT22;37694;51.748;14.326;2023-02-17T08:12:19;23.20;43.50
51613;DHT22;37694;51.748;14.326;2023-02-17T08:15:09;23.10;43.40
51613;DHT22;37694;51.748;14.326;2023-02-17T08:17:35;23.10;43.50
51613;DHT22;37694;51.748;14.326;2023-02-17T08:20:01;23.10;43.50
51613;DHT22;37694;51.748;14.326;2023-02-17T08:22:27;23.10;43.50
51613;DHT22;37694;51.748;14.326;2023-02-17T08:24:53;23.10;43.40
51613;DHT22;37694;51.748;14.326;2023-02-17T08:27:19;23.00;43.40
51613;DHT22;37694;51.748;14.326;2023-02-17T08:29:45;23.00;43.60
51613;DHT22;37694;51.748;14.326;2023-02-17T08:32:13;23.00;43.70
51613;DHT22;37694;51.748;14.326;2023-02-17T08:34:39;23.00;43.50
51613;DHT22;37694;51.748;14.326;2023-02-17T08:37:06;23.00;43.40
51613;DHT22;37694;51.748;14.326;2023-02-17T08:39:33;23.00;43.60
51613;DHT22;37694;51.748;14.326;2023-02-17T08:41:59;23.00;43.60
51613;DHT22;37694;51.748;14.326;2023-02-17T08:44:25;22.90;43.50
51613;DHT22;37694;51.748;14.326;2023-02-17T08:46:51;23.00;43.70
51613;DHT22;37694;51.748;14.326;2023-02-17T08:49:20;22.90;43.50
51613;DHT22;37694;51.748;14.326;2023-02-17T08:51:46;22.90;43.50
51613;DHT22;37694;51.748;14.326;2023-02-17T08:54:12;22.90;43.60
51613;DHT22;37694;51.748;14.326;2023-02-17T08:56:39;22.90;43.60
51613;DHT22;37694;51.748;14.326;2023-02-17T08:59:06;22.90;43.80
51613;DHT22;37694;51.748;14.326;2023-02-17T09:01:32;22.80;44.00
51613;DHT22;37694;51.748;14.326;2023-02-17T09:04:00;22.80;44.20
51613;DHT22;37694;51.748;14.326;2023-02-17T09:06:42;22.80;44.30
51613;DHT22;37694;51.748;14.326;2023-02-17T09:09:10;22.80;44.20
51613;DHT22;37694;51.748;14.326;2023-02-17T09:11:36;22.90;44.80
51613;DHT22;37694;51.748;14.326;2023-02-17T09:14:02;22.80;44.70
51613;DHT22;37694;51.748;14.326;2023-02-17T09:16:28;22.80;45.00
51613;DHT22;37694;51.748;14.326;2023-02-17T09:18:54;22.90;44.90
51613;DHT22;37694;51.748;14.326;2023-02-17T09:21:20;22.90;44.90
51613;DHT22;37694;51.748;14.326;2023-02-17T09:23:47;22.90;45.00
51613;DHT22;37694;51.748;14.326;2023-02-17T09:26:14;22.90;45.00
51613;DHT22;37694;51.748;14.326;2023-02-17T09:28:40;22.90;44.90
51613;DHT22;37694;51.748;14.326;2023-02-17T09:31:20;22.90;45.00
51613;DHT22;37694;51.748;14.326;2023-02-17T09:33:47;22.90;45.00
51613;DHT22;37694;51.748;14.326;2023-02-17T09:36:16;22.90;45.00
51613;DHT22;37694;51.748;14.326;2023-02-17T09:38:42;22.90;45.10
51613;DHT22;37694;51.748;14.326;2023-02-17T09:43:44;22.80;44.80
51613;DHT22;37694;51.748;14.326;2023-02-17T09:46:30;22.90;45.00
51613;DHT22;37694;51.748;14.326;2023-02-17T09:48:59;22.90;45.00
51613;DHT22;37694;51.748;14.326;2023-02-17T09:51:33;22.80;45.00
51613;DHT22;37694;51.748;14.326;2023-02-17T09:56:36;22.90;45.20
51613;DHT22;37694;51.748;14.326;2023-02-17T09:59:09;22.90;45.30
51613;DHT22;37694;51.748;14.326;2023-02-17T10:01:36;22.80;45.20
51613;DHT22;37694;51.748;14.326;2023-02-17T10:04:21;22.80;45.00
51613;DHT22;37694;51.748;14.326;2023-02-17T10:07:01;22.80;44.80
51613;DHT22;37694;51.748;14.326;2023-02-17T10:09:34;22.80;45.20
51613;DHT22;37694;51.748;14.326;2023-02-17T10:12:08;22.90;45.20
51613;DHT22;37694;51.748;14.326;2023-02-17T10:14:41;22.90;45.10
51613;DHT22;37694;51.748;14.326;2023-02-17T10:17:43;22.90;45.30
51613;DHT22;37694;51.748;14.326;2023-02-17T10:20:18;22.90;45.20
51613;DHT22;37694;51.748;14.326;2023-02-17T10:22:50;23.00;45.10
51613;DHT22;37694;51.748;14.326;2023-02-17T10:25:21;23.10;45.00
51613;DHT22;37694;51.748;14.326;2023-02-17T10:27:58;23.10;44.90
51613;DHT22;37694;51.748;14.326;2023-02-17T10:33:02;23.30;44.50
51613;DHT22;37694;51.748;14.326;2023-02-17T10:35:41;23.30;44.30
51613;DHT22;37694;51.748;14.326;2023-02-17T10:40:59;23.40;43.80
51613;DHT22;37694;51.748;14.326;2023-02-17T10:43:28;23.40;43.80
51613;DHT22;37694;51.748;14.326;2023-02-17T10:45:56;23.50;43.70
51613;DHT22;37694;51.748;14.326;2023-02-17T10:50:59;23.60;43.50
51613;DHT22;37694;51.748;14.326;2023-02-17T10:53:35;23.60;43.50
51613;DHT22;37694;51.748;14.326;2023-02-17T10:58:45;23.70;43.40
51613;DHT22;37694;51.748;14.326;2023-02-17T11:01:13;23.70;43.10
51613;DHT22;37694;51.748;14.326;2023-02-17T11:03:39;23.80;43.10
51613;DHT22;37694;51.748;14.326;2023-02-17T11:06:18;23.80;43.10
51613;DHT22;37694;51.748;14.326;2023-02-17T11:08:48;23.80;42.80
51613;DHT22;37694;51.748;14.326;2023-02-17T11:11:26;23.80;42.80
51613;DHT22;37694;51.748;14.326;2023-02-17T11:14:12;23.80;42.80
51613;DHT22;37694;51.748;14.326;2023-02-17T11:16:59;23.80;42.70
51613;DHT22;37694;51.748;14.326;2023-02-17T11:19:29;23.80;42.60
51613;DHT22;37694;51.748;14.326;2023-02-17T11:21:57;23.80;42.70
51613;DHT22;37694;51.748;14.326;2023-02-17T11:24:24;23.80;42.60
51613;DHT22;37694;51.748;14.326;2023-02-17T11:27:08;23.80;42.50
51613;DHT22;37694;51.748;14.326;2023-02-17T11:29:34;23.80;42.40
51613;DHT22;37694;51.748;14.326;2023-02-17T11:32:06;23.70;43.20
51613;DHT22;37694;51.748;14.326;2023-02-17T11:34:34;23.70;42.30
51613;DHT22;37694;51.748;14.326;2023-02-17T11:39:44;23.70;42.40
51613;DHT22;37694;51.748;14.326;2023-02-17T11:42:29;23.70;42.30
51613;DHT22;37694;51.748;14.326;2023-02-17T11:44:59;23.60;42.30
51613;DHT22;37694;51.748;14.326;2023-02-17T11:48:22;23.60;42.20
51613;DHT22;37694;51.748;14.326;2023-02-17T11:50:43;23.60;42.20
51613;DHT22;37694;51.748;14.326;2023-02-17T11:53:33;23.60;42.20
51613;DHT22;37694;51.748;14.326;2023-02-17T12:04:23;23.50;42.20
51613;DHT22;37694;51.748;14.326;2023-02-17T12:07:05;23.50;42.10
51613;DHT22;37694;51.748;14.326;2023-02-17T12:12:44;23.40;42.50
51613;DHT22;37694;51.748;14.326;2023-02-17T12:26:09;23.40;42.50
51613;DHT22;37694;51.748;14.326;2023-02-17T12:28:52;23.40;42.50
51613;DHT22;37694;51.748;14.326;2023-02-17T12:36:48;23.40;42.50
51613;DHT22;37694;51.748;14.326;2023-02-17T12:41:52;23.40;42.30
51613;DHT22;37694;51.748;14.326;2023-02-17T12:44:29;23.40;42.30
51613;DHT22;37694;51.748;14.326;2023-02-17T12:46:59;23.40;42.10
51613;DHT22;37694;51.748;14.326;2023-02-17T12:49:51;23.30;42.20
51613;DHT22;37694;51.748;14.326;2023-02-17T12:52:25;23.40;42.10
51613;DHT22;37694;51.748;14.326;2023-02-17T12:55:14;23.40;42.10
51613;DHT22;37694;51.748;14.326;2023-02-17T13:00:20;23.30;42.10
51613;DHT22;37694;51.748;14.326;2023-02-17T13:02:47;23.30;42.00
51613;DHT22;37694;51.748;14.326;2023-02-17T13:05:21;23.30;42.00
51613;DHT22;37694;51.748;14.326;2023-02-17T13:10:37;23.30;42.00
51613;DHT22;37694;51.748;14.326;2023-02-17T13:13:10;23.30;41.90
51613;DHT22;37694;51.748;14.326;2023-02-17T13:15:45;23.30;42.00
51613;DHT22;37694;51.748;14.326;2023-02-17T13:18:29;23.30;41.90
51613;DHT22;37694;51.748;14.326;2023-02-17T13:20:58;23.20;42.00
51613;DHT22;37694;51.748;14.326;2023-02-17T13:28:46;23.20;42.00
51613;DHT22;37694;51.748;14.326;2023-02-17T13:31:22;23.20;42.90
51613;DHT22;37694;51.748;14.326;2023-02-17T13:33:54;23.20;42.00
51613;DHT22;37694;51.748;14.326;2023-02-17T13:36:33;23.10;41.90
51613;DHT22;37694;51.748;14.326;2023-02-17T13:39:04;23.10;41.90
51613;DHT22;37694;51.748;14.326;2023-02-17T13:41:47;23.10;42.00
51613;DHT22;37694;51.748;14.326;2023-02-17T13:44:33;23.10;42.00
51613;DHT22;37694;51.748;14.326;2023-02-17T13:47:26;23.10;41.90
51613;DHT22;37694;51.748;14.326;2023-02-17T13:49:55;23.10;42.00
51613;DHT22;37694;51.748;14.326;2023-02-17T13:52:30;23.00;42.00
51613;DHT22;37694;51.748;14.326;2023-02-17T13:55:00;23.00;42.00
51613;DHT22;37694;51.748;14.326;2023-02-17T13:57:28;23.00;42.00
51613;DHT22;37694;51.748;14.326;2023-02-17T14:02:45;23.00;42.00
51613;DHT22;37694;51.748;14.326;2023-02-17T14:07:57;23.00;42.10
51613;DHT22;37694;51.748;14.326;2023-02-17T14:10:25;22.90;42.20
51613;DHT22;37694;51.748;14.326;2023-02-17T14:12:52;23.00;42.50
51613;DHT22;37694;51.748;14.326;2023-02-17T14:15:21;23.00;42.50
51613;DHT22;37694;51.748;14.326;2023-02-17T14:17:48;23.00;42.70
51613;DHT22;37694;51.748;14.326;2023-02-17T14:25:30;23.00;42.80
51613;DHT22;37694;51.748;14.326;2023-02-17T14:27:56;23.00;43.00
51613;DHT22;37694;51.748;14.326;2023-02-17T14:30:37;23.00;42.90
51613;DHT22;37694;51.748;14.326;2023-02-17T14:35:58;23.00;42.90
51613;DHT22;37694;51.748;14.326;2023-02-17T14:38:25;23.00;43.10
51613;DHT22;37694;51.748;14.326;2023-02-17T14:40:51;23.00;43.10
51613;DHT22;37694;51.748;14.326;2023-02-17T14:43:21;23.00;43.00
51613;DHT22;37694;51.748;14.326;2023-02-17T14:45:48;23.00;42.90
51613;DHT22;37694;51.748;14.326;2023-02-17T14:48:13;23.10;43.10
51613;DHT22;37694;51.748;14.326;2023-02-17T14:50:40;23.10;43.10
51613;DHT22;37694;51.748;14.326;2023-02-17T14:53:17;23.10;43.10
51613;DHT22;37694;51.748;14.326;2023-02-17T14:56:35;23.10;43.20
51613;DHT22;37694;51.748;14.326;2023-02-17T14:58:34;23.10;43.30
51613;DHT22;37694;51.748;14.326;2023-02-17T15:01:00;23.10;43.50
51613;DHT22;37694;51.748;14.326;2023-02-17T15:03:26;23.10;43.60
51613;DHT22;37694;51.748;14.326;2023-02-17T15:05:52;23.10;43.60
51613;DHT22;37694;51.748;14.326;2023-02-17T15:08:21;23.10;43.40
51613;DHT22;37694;51.748;14.326;2023-02-17T15:10:49;23.10;43.60
51613;DHT22;37694;51.748;14.326;2023-02-17T15:13:18;23.10;43.40
51613;DHT22;37694;51.748;14.326;2023-02-17T15:15:44;23.10;43.40
51613;DHT22;37694;51.748;14.326;2023-02-17T15:18:13;23.10;43.30
51613;DHT22;37694;51.748;14.326;2023-02-17T15:20:41;23.10;43.20
51613;DHT22;37694;51.748;14.326;2023-02-17T15:23:20;23.10;43.20
51613;DHT22;37694;51.748;14.326;2023-02-17T15:25:47;23.10;43.10
51613;DHT22;37694;51.748;14.326;2023-02-17T15:28:17;23.10;43.30
51613;DHT22;37694;51.748;14.326;2023-02-17T15:30:51;23.10;43.40
51613;DHT22;37694;51.748;14.326;2023-02-17T15:33:19;23.10;43.50
51613;DHT22;37694;51.748;14.326;2023-02-17T15:35:47;23.10;43.50
51613;DHT22;37694;51.748;14.326;2023-02-17T15:38:14;23.10;44.20
51613;DHT22;37694;51.748;14.326;2023-02-17T15:40:40;23.10;43.20
51613;DHT22;37694;51.748;14.326;2023-02-17T15:43:18;23.10;43.30
51613;DHT22;37694;51.748;14.326;2023-02-17T15:45:44;23.10;43.20
51613;DHT22;37694;51.748;14.326;2023-02-17T15:48:28;23.10;43.20
51613;DHT22;37694;51.748;14.326;2023-02-17T15:50:58;23.10;43.20
51613;DHT22;37694;51.748;14.326;2023-02-17T15:53:24;23.10;43.30
51613;DHT22;37694;51.748;14.326;2023-02-17T15:55:50;23.10;43.20
51613;DHT22;37694;51.748;14.326;2023-02-17T15:58:18;23.00;43.20
51613;DHT22;37694;51.748;14.326;2023-02-17T16:00:45;23.00;43.30
51613;DHT22;37694;51.748;14.326;2023-02-17T16:03:12;23.00;43.10
51613;DHT22;37694;51.748;14.326;2023-02-17T16:05:38;23.00;43.10
51613;DHT22;37694;51.748;14.326;2023-02-17T16:08:04;23.00;43.20
51613;DHT22;37694;51.748;14.326;2023-02-17T16:10:31;23.00;44.00
51613;DHT22;37694;51.748;14.326;2023-02-17T16:12:59;23.00;43.30
51613;DHT22;37694;51.748;14.326;2023-02-17T16:15:27;23.00;43.20
51613;DHT22;37694;51.748;14.326;2023-02-17T16:17:54;23.00;43.30
51613;DHT22;37694;51.748;14.326;2023-02-17T16:20:26;23.00;43.30
51613;DHT22;37694;51.748;14.326;2023-02-17T16:22:52;23.00;43.20
51613;DHT22;37694;51.748;14.326;2023-02-17T16:25:19;23.00;43.10
51613;DHT22;37694;51.748;14.326;2023-02-17T16:27:46;23.00;43.00
51613;DHT22;37694;51.748;14.326;2023-02-17T16:32:50;23.00;43.10
51613;DHT22;37694;51.748;14.326;2023-02-17T16:35:19;23.00;43.10
51613;DHT22;37694;51.748;14.326;2023-02-17T16:40:17;23.00;43.10
51613;DHT22;37694;51.748;14.326;2023-02-17T16:42:43;23.00;43.00
51613;DHT22;37694;51.748;14.326;2023-02-17T16:45:14;23.00;43.00
51613;DHT22;37694;51.748;14.326;2023-02-17T16:47:43;23.10;43.00
51613;DHT22;37694;51.748;14.326;2023-02-17T16:50:16;23.10;43.30
51613;DHT22;37694;51.748;14.326;2023-02-17T16:52:42;23.10;43.20
51613;DHT22;37694;51.748;14.326;2023-02-17T16:55:20;23.10;43.30
51613;DHT22;37694;51.748;14.326;2023-02-17T16:57:46;23.10;43.90
51613;DHT22;37694;51.748;14.326;2023-02-17T17:00:15;23.10;43.20
51613;DHT22;37694;51.748;14.326;2023-02-17T17:02:43;23.10;43.10
51613;DHT22;37694;51.748;14.326;2023-02-17T17:05:11;23.10;43.10
51613;DHT22;37694;51.748;14.326;2023-02-17T17:07:38;23.10;43.10
51613;DHT22;37694;51.748;14.326;2023-02-17T17:10:07;23.10;43.50
51613;DHT22;37694;51.748;14.326;2023-02-17T17:12:33;23.10;43.50